createdAt,value
2022-08-20T00:12:01.109Z,1.90
2022-08-20T00:14:28.462Z,1.90
2022-08-20T00:16:58.230Z,1.90
2022-08-20T00:44:56.784Z,1.50
2022-08-20T00:47:52.272Z,1.60
2022-08-20T00:58:18.674Z,1.60
2022-08-20T01:04:01.330Z,1.80
2022-08-20T01:10:37.330Z,2.00
2022-08-20T01:32:25.820Z,1.80
2022-08-20T01:35:02.596Z,1.80
2022-08-20T01:45:30.453Z,1.90
2022-08-20T01:52:08.481Z,1.60
2022-08-20T01:54:36.139Z,1.70
2022-08-20T02:12:14.461Z,1.53
2022-08-20T02:14:45.168Z,2.00
2022-08-20T02:42:17.189Z,1.90
2022-08-20T02:44:44.690Z,1.90
2022-08-20T02:47:12.231Z,1.60
2022-08-20T02:49:42.148Z,1.83
2022-08-20T02:58:21.435Z,1.73
2022-08-20T03:00:49.685Z,1.77
2022-08-20T03:03:22.804Z,1.73
2022-08-20T03:06:30.819Z,1.80
2022-08-20T03:13:05.761Z,1.60
2022-08-20T03:15:34.341Z,1.90
2022-08-20T03:18:01.890Z,1.90
2022-08-20T03:21:07.047Z,1.87
2022-08-20T03:37:05.202Z,1.90
2022-08-20T03:39:32.529Z,2.13
2022-08-20T03:41:59.902Z,1.93
2022-08-20T03:44:27.100Z,2.60
2022-08-20T03:46:54.523Z,1.80
2022-08-20T03:49:23.989Z,2.30
2022-08-20T03:51:58.433Z,2.87
2022-08-20T04:19:02.287Z,3.00
2022-08-20T04:28:07.049Z,2.67
2022-08-20T04:30:34.758Z,2.70
2022-08-20T04:33:02.293Z,2.23
2022-08-20T04:38:47.917Z,2.47
2022-08-20T04:41:24.289Z,2.40
2022-08-20T04:44:03.793Z,2.60
2022-08-20T04:46:32.715Z,2.97
2022-08-20T04:49:03.984Z,3.17
2022-08-20T04:51:32.260Z,2.30
2022-08-20T04:54:00.374Z,3.23
2022-08-20T04:56:32.283Z,2.40
2022-08-20T04:59:01.644Z,3.33
2022-08-20T05:01:29.450Z,2.80
2022-08-20T05:03:58.064Z,2.40
2022-08-20T05:06:29.831Z,2.80
2022-08-20T05:08:58.790Z,2.47
2022-08-20T05:11:34.053Z,3.07
2022-08-20T05:14:18.374Z,2.63
2022-08-20T05:16:45.651Z,2.90
2022-08-20T05:19:13.528Z,2.80
2022-08-20T05:21:41.629Z,3.00
2022-08-20T05:24:10.519Z,2.83
2022-08-20T05:26:37.756Z,3.00
2022-08-20T05:29:06.812Z,3.07
2022-08-20T05:31:35.169Z,3.50
2022-08-20T05:34:07.048Z,3.00
2022-08-20T05:36:38.073Z,2.80
2022-08-20T05:39:05.216Z,2.77
2022-08-20T05:41:32.330Z,3.67
2022-08-20T05:44:01.404Z,3.30
2022-08-20T05:46:32.577Z,3.27
2022-08-20T05:49:01.987Z,3.13
2022-08-20T05:51:30.214Z,2.70
2022-08-20T05:53:59.126Z,3.40
2022-08-20T05:56:34.990Z,3.73
2022-08-20T05:59:06.283Z,3.13
2022-08-20T06:01:36.049Z,3.43
2022-08-20T06:04:22.191Z,3.73
2022-08-20T06:06:51.720Z,4.00
2022-08-20T06:09:30.851Z,4.20
2022-08-20T06:12:23.300Z,3.90
2022-08-20T06:15:09.901Z,4.53
2022-08-20T06:17:39.643Z,5.30
2022-08-20T06:20:18.160Z,4.65
2022-08-20T06:22:45.777Z,4.63
2022-08-20T06:25:15.146Z,3.60
2022-08-20T06:27:43.545Z,4.38
2022-08-20T06:30:14.056Z,4.95
2022-08-20T06:32:41.244Z,3.97
2022-08-20T06:35:10.031Z,4.13
2022-08-20T06:37:40.161Z,4.32
2022-08-20T06:40:12.997Z,4.70
2022-08-20T06:42:47.797Z,3.97
2022-08-20T06:45:19.741Z,4.60
2022-08-20T06:47:47.765Z,5.13
2022-08-20T06:50:20.159Z,5.05
2022-08-20T06:52:53.098Z,5.00
2022-08-20T06:55:21.846Z,5.30
2022-08-20T06:57:59.894Z,5.18
2022-08-20T07:00:28.611Z,5.75
2022-08-20T07:02:55.773Z,5.18
2022-08-20T07:05:23.240Z,6.82
2022-08-20T07:07:57.865Z,7.20
2022-08-20T07:10:25.509Z,7.57
2022-08-20T07:12:53.395Z,9.15
2022-08-20T07:15:23.062Z,8.93
2022-08-20T07:17:52.265Z,8.90
2022-08-20T07:20:35.957Z,9.40
2022-08-20T07:23:03.198Z,9.85
2022-08-20T07:25:33.654Z,9.50
2022-08-20T07:28:04.794Z,9.98
2022-08-20T07:30:56.722Z,9.65
2022-08-20T07:33:30.070Z,8.55
2022-08-20T07:36:06.056Z,8.27
2022-08-20T07:38:34.753Z,8.85
2022-08-20T07:41:13.090Z,9.95
2022-08-20T07:43:41.971Z,9.55
2022-08-20T07:46:10.225Z,10.25
2022-08-20T07:48:44.565Z,9.85
2022-08-20T07:51:11.909Z,9.93
2022-08-20T07:53:40.969Z,9.15
2022-08-20T07:56:11.627Z,11.00
2022-08-20T07:58:50.006Z,11.80
2022-08-20T08:01:20.075Z,9.45
2022-08-20T08:03:50.471Z,10.75
2022-08-20T08:06:29.793Z,11.00
2022-08-20T08:09:09.871Z,12.65
2022-08-20T08:11:40.166Z,11.75
2022-08-20T08:14:16.756Z,12.32
2022-08-20T08:16:45.545Z,10.93
2022-08-20T08:19:15.299Z,12.30
2022-08-20T08:21:43.630Z,14.13
2022-08-20T08:24:14.379Z,11.27
2022-08-20T08:26:44.583Z,14.57
2022-08-20T08:29:12.159Z,12.75
2022-08-20T08:31:41.347Z,12.10
2022-08-20T08:34:08.754Z,12.63
2022-08-20T08:36:36.046Z,12.80
2022-08-20T08:39:06.765Z,12.70
2022-08-20T08:41:49.442Z,14.68
2022-08-20T08:44:31.183Z,13.00
2022-08-20T08:47:18.411Z,12.80
2022-08-20T08:49:47.549Z,13.30
2022-08-20T08:52:25.287Z,13.52
2022-08-20T08:54:59.118Z,14.23
2022-08-20T08:57:29.141Z,14.13
2022-08-20T09:00:05.039Z,15.80
2022-08-20T09:02:34.273Z,15.55
2022-08-20T09:05:04.204Z,13.85
2022-08-20T09:07:33.557Z,15.52
2022-08-20T09:10:02.444Z,14.75
2022-08-20T09:12:29.793Z,16.90
2022-08-20T09:15:05.813Z,14.80
2022-08-20T09:17:42.465Z,14.88
2022-08-20T09:20:25.955Z,13.65
2022-08-20T09:23:01.013Z,14.70
2022-08-20T09:25:28.240Z,14.77
2022-08-20T09:27:55.546Z,13.23
2022-08-20T09:30:22.845Z,12.63
2022-08-20T09:32:54.288Z,15.27
2022-08-20T09:35:21.628Z,13.85
2022-08-20T09:37:50.904Z,12.98
2022-08-20T09:40:21.255Z,11.07
2022-08-20T09:42:49.807Z,10.88
2022-08-20T09:45:17.764Z,10.93
2022-08-20T09:48:01.911Z,11.50
2022-08-20T09:50:54.360Z,11.40
2022-08-20T10:15:10.659Z,8.18
2022-08-20T10:17:43.072Z,7.57
2022-08-20T10:20:18.385Z,7.63
2022-08-20T10:22:45.855Z,8.00
2022-08-20T10:25:13.618Z,8.23
2022-08-20T10:27:40.898Z,8.38
2022-08-20T10:30:08.724Z,8.20
2022-08-20T10:32:36.073Z,8.15
2022-08-20T10:35:04.162Z,8.57
2022-08-20T10:37:31.743Z,9.70
2022-08-20T10:39:58.977Z,8.75
2022-08-20T10:42:26.208Z,10.80
2022-08-20T10:44:53.463Z,9.18
2022-08-20T10:47:22.122Z,7.95
2022-08-20T10:49:58.821Z,7.60
2022-08-20T10:52:27.016Z,5.85
2022-08-20T10:54:54.845Z,5.90
2022-08-20T10:57:28.514Z,6.38
2022-08-20T10:59:58.919Z,5.38
2022-08-20T11:02:28.144Z,5.20
2022-08-20T11:04:56.069Z,5.63
2022-08-20T11:07:55.030Z,6.80
2022-08-20T11:10:21.597Z,5.45
2022-08-20T11:12:48.919Z,11.77
2022-08-20T11:15:48.644Z,7.93
2022-08-20T11:18:19.754Z,10.10
2022-08-20T11:20:46.995Z,10.95
2022-08-20T11:23:14.178Z,9.70
2022-08-20T11:25:41.328Z,14.27
2022-08-20T11:28:08.859Z,14.25
2022-08-20T11:30:37.658Z,13.73
2022-08-20T11:33:05.694Z,13.63
2022-08-20T11:35:48.380Z,14.38
2022-08-20T11:38:22.728Z,14.27
2022-08-20T11:40:49.876Z,14.60
2022-08-20T11:43:17.997Z,15.38
2022-08-20T11:45:48.018Z,13.65
2022-08-20T11:48:15.252Z,12.38
2022-08-20T11:50:42.525Z,12.48
2022-08-20T11:53:09.670Z,12.20
2022-08-20T11:55:37.187Z,12.60
2022-08-20T11:58:06.702Z,11.07
2022-08-20T12:00:36.755Z,11.45
2022-08-20T12:03:09.427Z,9.73
2022-08-20T12:05:38.506Z,12.27
2022-08-20T12:08:06.546Z,8.57
2022-08-20T12:10:34.236Z,7.30
2022-08-20T12:13:02.675Z,7.60
2022-08-20T12:15:36.664Z,16.15
2022-08-20T12:18:08.024Z,13.93
2022-08-20T12:20:36.182Z,12.15
2022-08-20T12:23:04.462Z,9.30
2022-08-20T12:25:31.599Z,9.90
2022-08-20T12:27:59.817Z,6.97
2022-08-20T12:30:27.211Z,11.65
2022-08-20T12:32:54.425Z,7.70
2022-08-20T12:35:27.302Z,9.18
2022-08-20T12:38:08.675Z,7.70
2022-08-20T12:40:36.238Z,7.50
2022-08-20T12:43:03.615Z,9.98
2022-08-20T12:45:32.555Z,9.82
2022-08-20T12:48:08.306Z,13.70
2022-08-20T12:50:40.126Z,10.02
2022-08-20T12:53:07.523Z,12.77
2022-08-20T12:55:35.245Z,15.57
2022-08-20T12:58:04.358Z,12.15
2022-08-20T13:00:35.062Z,12.23
2022-08-20T13:03:04.872Z,12.80
2022-08-20T13:05:33.214Z,10.48
2022-08-20T13:08:07.935Z,9.57
2022-08-20T13:10:38.151Z,13.07
2022-08-20T13:13:05.405Z,8.98
2022-08-20T13:15:32.609Z,9.02
2022-08-20T13:18:01.952Z,7.65
2022-08-20T13:20:31.724Z,7.68
2022-08-20T13:23:03.451Z,8.50
2022-08-20T13:25:31.109Z,5.15
2022-08-20T13:28:00.248Z,4.03
2022-08-20T13:30:27.695Z,2.00
2022-08-20T13:32:55.102Z,1.70
2022-08-20T13:35:22.681Z,2.33
2022-08-20T13:37:52.196Z,1.33
2022-08-20T13:40:19.528Z,2.22
2022-08-20T13:42:47.048Z,1.90
2022-08-20T13:45:14.630Z,2.15
2022-08-20T13:47:42.962Z,1.73
2022-08-20T13:50:20.419Z,2.08
2022-08-20T13:52:48.523Z,2.10
2022-08-20T13:55:32.369Z,2.90
2022-08-20T13:58:06.063Z,2.15
2022-08-20T14:00:35.580Z,2.20
2022-08-20T14:03:05.838Z,2.35
2022-08-20T14:05:33.379Z,1.83
2022-08-20T14:08:08.776Z,2.17
2022-08-20T14:10:37.012Z,2.20
2022-08-20T14:13:06.831Z,2.20
2022-08-20T14:15:35.862Z,2.50
2022-08-20T14:18:04.496Z,2.10
2022-08-20T14:20:33.636Z,2.70
2022-08-20T14:23:01.966Z,2.60
2022-08-20T14:25:31.654Z,2.45
2022-08-20T14:27:59.793Z,4.43
2022-08-20T14:30:30.599Z,2.83
2022-08-20T14:32:58.097Z,2.65
2022-08-20T14:35:25.553Z,3.60
2022-08-20T14:37:54.491Z,3.78
2022-08-20T14:40:25.999Z,10.43
2022-08-20T14:42:55.765Z,6.22
2022-08-20T14:45:23.713Z,4.10
2022-08-20T14:47:54.206Z,7.53
2022-08-20T14:50:39.999Z,6.38
2022-08-20T14:53:10.496Z,7.88
2022-08-20T14:55:38.305Z,5.13
2022-08-20T14:58:10.760Z,6.07
2022-08-20T15:00:38.832Z,6.63
2022-08-20T15:03:06.236Z,8.55
2022-08-20T15:05:34.980Z,11.60
2022-08-20T15:08:11.007Z,29.38
2022-08-20T15:10:39.356Z,15.35
2022-08-20T15:13:10.486Z,12.02
2022-08-20T15:15:37.876Z,13.00
2022-08-20T15:18:05.555Z,13.73
2022-08-20T15:20:35.140Z,6.68
2022-08-20T15:23:02.984Z,3.10
2022-08-20T15:25:36.913Z,4.85
2022-08-20T15:28:08.570Z,6.90
2022-08-20T15:30:37.625Z,3.67
2022-08-20T15:33:12.759Z,4.88
2022-08-20T15:35:45.572Z,4.55
2022-08-20T15:38:15.087Z,4.57
2022-08-20T15:40:42.444Z,4.60
2022-08-20T15:43:09.947Z,5.35
2022-08-20T15:45:45.508Z,7.25
2022-08-20T15:48:20.405Z,9.40
2022-08-20T15:51:10.450Z,6.88
2022-08-20T15:53:58.411Z,7.35
2022-08-20T15:56:46.266Z,8.45
2022-08-20T15:59:34.787Z,8.07
2022-08-20T16:02:25.845Z,6.72
2022-08-20T16:05:19.443Z,6.20
2022-08-20T16:08:04.058Z,6.90
2022-08-20T16:10:58.828Z,7.22
2022-08-20T16:13:35.006Z,7.30
2022-08-20T16:16:03.965Z,7.60
2022-08-20T16:18:36.018Z,7.75
2022-08-20T16:21:09.848Z,5.38
2022-08-20T16:23:39.443Z,8.32
2022-08-20T16:26:15.703Z,6.70
2022-08-20T16:28:52.239Z,6.70
2022-08-20T16:31:24.173Z,7.25
2022-08-20T16:34:48.554Z,9.00
2022-08-20T16:37:34.576Z,9.10
2022-08-20T16:40:20.772Z,9.73
2022-08-20T16:42:51.399Z,7.47
2022-08-20T16:45:26.798Z,16.17
2022-08-20T16:47:59.935Z,7.78
2022-08-20T16:50:35.270Z,10.55
2022-08-20T16:53:02.568Z,10.73
2022-08-20T16:55:29.870Z,6.90
2022-08-20T16:57:57.561Z,16.33
2022-08-20T17:00:35.215Z,7.68
2022-08-20T17:03:06.748Z,6.07
2022-08-20T17:05:45.248Z,8.00
2022-08-20T17:08:28.547Z,10.75
2022-08-20T17:11:15.831Z,7.38
2022-08-20T17:13:46.192Z,14.90
2022-08-20T17:16:13.298Z,5.90
2022-08-20T17:18:52.333Z,6.97
2022-08-20T17:21:27.120Z,6.05
2022-08-20T17:23:58.670Z,5.65
2022-08-20T17:26:40.404Z,5.03
2022-08-20T17:29:20.366Z,4.25
2022-08-20T17:32:00.266Z,5.85
2022-08-20T17:34:31.683Z,7.20
2022-08-20T17:37:19.393Z,4.85
2022-08-20T17:40:04.884Z,9.27
2022-08-20T17:42:32.252Z,6.35
2022-08-20T17:45:25.523Z,6.03
2022-08-20T17:47:54.875Z,8.75
2022-08-20T17:50:31.625Z,5.72
2022-08-20T17:53:23.780Z,6.43
2022-08-20T17:55:58.620Z,5.88
2022-08-20T17:58:54.866Z,5.32
2022-08-20T18:01:23.809Z,4.97
2022-08-20T18:03:52.693Z,3.83
2022-08-20T18:06:30.480Z,4.13
2022-08-20T18:09:40.761Z,4.20
2022-08-20T18:12:35.011Z,5.07
2022-08-20T18:15:10.784Z,3.95
2022-08-20T18:17:40.828Z,4.50
2022-08-20T18:20:37.770Z,6.25
2022-08-20T18:23:23.820Z,3.88
2022-08-20T18:26:00.912Z,3.83
2022-08-20T18:28:38.272Z,6.80
2022-08-20T18:31:09.069Z,7.72
2022-08-20T18:33:42.050Z,4.82
2022-08-20T18:36:24.922Z,5.47
2022-08-20T18:39:08.326Z,5.50
2022-08-20T18:41:38.356Z,5.82
2022-08-20T18:44:11.261Z,6.30
2022-08-20T18:47:00.521Z,5.05
2022-08-20T18:49:39.203Z,4.43
2022-08-20T18:52:26.035Z,6.00
2022-08-20T18:54:55.741Z,6.20
2022-08-20T18:57:26.889Z,5.72
2022-08-20T19:00:13.410Z,5.00
2022-08-20T19:02:58.930Z,8.07
2022-08-20T19:05:45.434Z,4.68
2022-08-20T19:08:17.028Z,3.85
2022-08-20T19:11:01.141Z,5.18
2022-08-20T19:13:54.341Z,4.80
2022-08-20T19:16:29.504Z,6.95
2022-08-20T19:18:56.795Z,6.00
2022-08-20T19:21:35.630Z,6.20
2022-08-20T19:24:06.710Z,5.63
2022-08-20T19:26:57.141Z,5.95
2022-08-20T19:29:48.195Z,5.70
2022-08-20T19:32:31.169Z,4.38
2022-08-20T19:35:01.779Z,6.18
2022-08-20T19:37:39.656Z,6.03
2022-08-20T19:40:30.687Z,6.03
2022-08-20T19:43:06.777Z,5.10
2022-08-20T19:45:46.636Z,5.38
2022-08-20T19:48:40.827Z,6.28
2022-08-20T19:54:24.336Z,6.18
2022-08-20T19:56:59.034Z,5.10
2022-08-20T19:59:27.907Z,6.53
2022-08-20T20:02:02.934Z,5.63
2022-08-20T20:21:23.595Z,5.30
2022-08-20T20:41:29.775Z,5.90
2022-08-20T21:14:57.550Z,4.30
2022-08-20T21:24:55.867Z,5.25
2022-08-20T21:31:57.934Z,4.53
2022-08-20T21:34:59.857Z,6.23
2022-08-20T21:56:55.712Z,4.17
2022-08-20T22:08:19.011Z,4.17
2022-08-20T22:10:57.681Z,6.67
2022-08-20T22:14:48.358Z,5.67
2022-08-20T22:16:35.874Z,4.70
2022-08-20T22:19:03.741Z,4.53
2022-08-20T22:41:17.457Z,5.13
2022-08-20T22:57:31.147Z,6.27
2022-08-20T23:00:24.578Z,3.87
2022-08-20T23:09:59.624Z,7.33
2022-08-20T23:17:04.691Z,6.97
2022-08-20T23:24:05.748Z,5.57
2022-08-20T23:30:29.368Z,7.77
2022-08-20T23:33:01.528Z,7.23
2022-08-20T23:36:16.733Z,7.97
2022-08-20T23:38:50.783Z,5.63
2022-08-20T23:41:25.462Z,6.03
2022-08-20T23:44:25.318Z,7.87
2022-08-20T23:47:01.360Z,8.13
2022-08-20T23:54:32.398Z,7.27
